createdAt,value
2022-12-18T00:00:11.959Z,-3.13
2022-12-18T00:02:38.533Z,-3.07
2022-12-18T00:05:04.975Z,-3.16
2022-12-18T00:07:31.409Z,-3.49
2022-12-18T00:09:57.809Z,-3.56
2022-12-18T00:12:24.225Z,-3.57
2022-12-18T00:14:50.602Z,-3.53
2022-12-18T00:17:17.253Z,-3.42
2022-12-18T00:19:43.747Z,-3.53
2022-12-18T00:22:10.188Z,-3.25
2022-12-18T00:24:36.854Z,-3.42
2022-12-18T00:27:03.260Z,-3.10
2022-12-18T00:29:29.685Z,-3.35
2022-12-18T00:31:56.133Z,-3.09
2022-12-18T00:34:22.564Z,-3.12
2022-12-18T00:36:49.051Z,-3.57
2022-12-18T00:39:15.395Z,-3.44
2022-12-18T00:41:41.820Z,-3.35
2022-12-18T00:44:08.254Z,-3.84
2022-12-18T00:46:34.722Z,-3.95
2022-12-18T00:49:01.217Z,-3.83
2022-12-18T00:51:27.627Z,-3.65
2022-12-18T00:53:54.064Z,-3.86
2022-12-18T00:56:20.627Z,-3.78
2022-12-18T00:58:47.052Z,-3.60
2022-12-18T01:01:13.610Z,-3.48
2022-12-18T01:03:40.633Z,-3.57
2022-12-18T01:06:07.360Z,-3.60
2022-12-18T01:08:33.737Z,-3.47
2022-12-18T01:11:00.331Z,-3.31
2022-12-18T01:13:26.733Z,-3.47
2022-12-18T01:15:53.252Z,-3.51
2022-12-18T01:18:19.838Z,-3.46
2022-12-18T01:20:46.288Z,-3.49
2022-12-18T01:23:12.715Z,-3.52
2022-12-18T01:25:39.185Z,-3.50
2022-12-18T01:28:05.727Z,-3.43
2022-12-18T01:30:32.235Z,-3.52
2022-12-18T01:33:00.815Z,-3.75
2022-12-18T01:35:27.283Z,-3.81
2022-12-18T01:37:53.746Z,-3.69
2022-12-18T01:40:20.129Z,-3.66
2022-12-18T01:42:46.450Z,-3.62
2022-12-18T01:45:12.796Z,-3.78
2022-12-18T01:47:39.159Z,-3.75
2022-12-18T01:50:05.481Z,-3.61
2022-12-18T01:52:31.923Z,-3.52
2022-12-18T01:54:58.557Z,-3.86
2022-12-18T01:57:24.984Z,-4.31
2022-12-18T01:59:51.562Z,-4.09
2022-12-18T02:02:18.023Z,-3.98
2022-12-18T02:04:49.294Z,-4.02
2022-12-18T02:07:16.430Z,-4.34
2022-12-18T02:09:42.891Z,-4.15
2022-12-18T02:12:09.822Z,-3.95
2022-12-18T02:14:36.398Z,-3.84
2022-12-18T02:17:03.464Z,-3.74
2022-12-18T02:19:30.017Z,-3.67
2022-12-18T02:21:57.402Z,-3.64
2022-12-18T02:24:24.008Z,-3.62
2022-12-18T02:26:50.647Z,-3.65
2022-12-18T02:29:17.093Z,-3.65
2022-12-18T02:31:43.755Z,-3.64
2022-12-18T02:34:10.381Z,-3.64
2022-12-18T02:36:37.766Z,-3.66
2022-12-18T02:39:04.198Z,-3.68
2022-12-18T02:41:30.612Z,-3.76
2022-12-18T02:43:57.007Z,-3.67
2022-12-18T02:46:23.532Z,-3.85
2022-12-18T02:48:50.222Z,-3.79
2022-12-18T02:51:16.679Z,-3.86
2022-12-18T02:53:43.103Z,-3.77
2022-12-18T02:56:09.513Z,-3.69
2022-12-18T02:58:35.948Z,-3.57
2022-12-18T03:01:02.431Z,-3.62
2022-12-18T03:03:28.873Z,-3.67
2022-12-18T03:05:55.249Z,-3.74
2022-12-18T03:08:21.973Z,-3.81
2022-12-18T03:10:48.414Z,-3.85
2022-12-18T03:13:14.825Z,-3.68
2022-12-18T03:15:41.208Z,-3.64
2022-12-18T03:18:07.621Z,-3.69
2022-12-18T03:20:34.084Z,-3.60
2022-12-18T03:23:00.492Z,-3.76
2022-12-18T03:25:26.896Z,-4.03
2022-12-18T03:27:53.229Z,-4.02
2022-12-18T03:30:19.637Z,-4.56
2022-12-18T03:32:45.995Z,-4.30
2022-12-18T03:35:12.457Z,-4.01
2022-12-18T03:37:38.812Z,-4.07
2022-12-18T03:40:05.722Z,-4.01
2022-12-18T03:42:35.140Z,-3.85
2022-12-18T03:45:02.006Z,-3.86
2022-12-18T03:47:28.412Z,-4.06
2022-12-18T03:49:54.839Z,-4.30
2022-12-18T03:52:21.233Z,-4.35
2022-12-18T03:54:47.592Z,-4.42
2022-12-18T03:57:13.974Z,-4.37
2022-12-18T03:59:40.465Z,-4.24
2022-12-18T04:02:06.930Z,-4.26
2022-12-18T04:04:33.383Z,-4.27
2022-12-18T04:06:59.748Z,-4.47
2022-12-18T04:09:26.324Z,-4.55
2022-12-18T04:11:52.726Z,-4.37
2022-12-18T04:14:19.166Z,-4.34
2022-12-18T04:16:45.630Z,-4.60
2022-12-18T04:19:12.195Z,-4.52
2022-12-18T04:21:38.542Z,-4.54
2022-12-18T04:24:04.967Z,-4.41
2022-12-18T04:26:31.373Z,-4.36
2022-12-18T04:28:57.804Z,-4.65
2022-12-18T04:31:24.219Z,-5.07
2022-12-18T04:33:50.692Z,-4.75
2022-12-18T04:36:17.095Z,-5.40
2022-12-18T04:38:43.468Z,-5.34
2022-12-18T04:41:09.838Z,-5.16
2022-12-18T04:43:36.305Z,-5.25
2022-12-18T04:46:02.862Z,-5.04
2022-12-18T04:48:29.368Z,-5.01
2022-12-18T04:50:55.778Z,-4.81
2022-12-18T04:53:22.173Z,-4.81
2022-12-18T04:55:48.685Z,-4.75
2022-12-18T04:58:15.134Z,-4.60
2022-12-18T05:00:41.557Z,-4.73
2022-12-18T05:03:08.134Z,-4.66
2022-12-18T05:05:34.544Z,-4.81
2022-12-18T05:08:00.950Z,-4.67
2022-12-18T05:10:27.388Z,-4.77
2022-12-18T05:12:54.712Z,-4.85
2022-12-18T05:15:21.071Z,-5.09
2022-12-18T05:17:47.440Z,-4.97
2022-12-18T05:20:13.971Z,-4.94
2022-12-18T05:22:40.350Z,-5.37
2022-12-18T05:25:06.681Z,-5.23
2022-12-18T05:27:33.178Z,-5.39
2022-12-18T05:29:59.606Z,-5.20
2022-12-18T05:32:26.054Z,-5.38
2022-12-18T05:34:52.536Z,-5.38
2022-12-18T05:37:18.937Z,-5.04
2022-12-18T05:39:45.368Z,-5.79
2022-12-18T05:42:11.800Z,-5.74
2022-12-18T05:44:38.292Z,-5.54
2022-12-18T05:47:04.796Z,-5.59
2022-12-18T05:49:31.171Z,-5.24
2022-12-18T05:51:57.622Z,-5.69
2022-12-18T05:54:24.044Z,-5.66
2022-12-18T05:56:50.405Z,-5.49
2022-12-18T05:59:16.988Z,-5.28
2022-12-18T06:01:43.630Z,-5.29
2022-12-18T06:04:10.192Z,-5.23
2022-12-18T06:06:36.541Z,-5.32
2022-12-18T06:09:03.735Z,-5.33
2022-12-18T06:11:30.179Z,-5.31
2022-12-18T06:13:59.110Z,-5.46
2022-12-18T06:16:25.990Z,-5.33
2022-12-18T06:18:52.379Z,-5.18
2022-12-18T06:21:18.854Z,-5.35
2022-12-18T06:23:45.228Z,-5.28
2022-12-18T06:26:11.530Z,-5.27
2022-12-18T06:28:37.992Z,-5.21
2022-12-18T06:31:04.406Z,-5.77
2022-12-18T06:33:30.974Z,-5.62
2022-12-18T06:36:01.006Z,-5.75
2022-12-18T06:38:27.892Z,-6.02
2022-12-18T06:40:54.403Z,-6.05
2022-12-18T06:43:20.844Z,-6.14
2022-12-18T06:45:47.278Z,-5.88
2022-12-18T06:48:13.655Z,-5.63
2022-12-18T06:50:40.080Z,-5.44
2022-12-18T06:53:06.428Z,-5.23
2022-12-18T06:55:33.993Z,-5.25
2022-12-18T06:58:00.438Z,-5.11
2022-12-18T07:00:27.061Z,-5.15
2022-12-18T07:02:53.742Z,-5.10
2022-12-18T07:05:23.436Z,-5.13
2022-12-18T07:07:51.957Z,-5.15
2022-12-18T07:10:18.367Z,-5.24
2022-12-18T07:12:44.774Z,-5.22
2022-12-18T07:15:11.242Z,-5.44
2022-12-18T07:17:37.663Z,-5.49
2022-12-18T07:20:04.099Z,-5.36
2022-12-18T07:22:30.527Z,-5.29
2022-12-18T07:24:56.993Z,-5.09
2022-12-18T07:27:23.445Z,-5.03
2022-12-18T07:29:49.870Z,-5.04
2022-12-18T07:32:17.315Z,-5.21
2022-12-18T07:34:43.699Z,-5.16
2022-12-18T07:37:10.103Z,-5.10
2022-12-18T07:39:36.566Z,-5.05
2022-12-18T07:42:02.989Z,-4.96
2022-12-18T07:44:31.760Z,-4.92
2022-12-18T07:46:58.211Z,-4.85
2022-12-18T07:49:24.631Z,-4.80
2022-12-18T07:51:51.079Z,-4.74
2022-12-18T07:54:17.647Z,-4.78
2022-12-18T07:56:44.073Z,-4.79
2022-12-18T07:59:11.512Z,-4.83
2022-12-18T08:01:38.036Z,-4.71
2022-12-18T08:04:04.607Z,-4.63
2022-12-18T08:06:30.996Z,-4.60
2022-12-18T08:08:57.368Z,-4.58
2022-12-18T08:11:24.062Z,-4.53
2022-12-18T08:13:50.586Z,-4.54
2022-12-18T08:16:17.044Z,-4.58
2022-12-18T08:18:43.582Z,-4.53
2022-12-18T08:21:10.043Z,-4.64
2022-12-18T08:23:42.122Z,-4.68
2022-12-18T08:26:09.512Z,-4.49
2022-12-18T08:28:35.945Z,-4.36
2022-12-18T08:31:02.346Z,-4.13
2022-12-18T08:33:29.605Z,-4.35
2022-12-18T08:35:56.139Z,-4.80
2022-12-18T08:38:22.570Z,-4.64
2022-12-18T08:40:49.053Z,-4.50
2022-12-18T08:43:15.757Z,-4.31
2022-12-18T08:45:42.338Z,-4.29
2022-12-18T08:48:08.859Z,-4.31
2022-12-18T08:50:35.292Z,-4.07
2022-12-18T08:53:01.705Z,-4.23
2022-12-18T08:55:28.144Z,-4.48
2022-12-18T08:57:54.641Z,-4.29
2022-12-18T09:00:21.033Z,-4.29
2022-12-18T09:02:47.758Z,-4.35
2022-12-18T09:05:14.404Z,-4.07
2022-12-18T09:07:40.834Z,-3.97
2022-12-18T09:10:07.289Z,-3.54
2022-12-18T09:12:33.859Z,-3.67
2022-12-18T09:15:00.672Z,-3.73
2022-12-18T09:17:27.339Z,-3.82
2022-12-18T09:19:53.761Z,-3.72
2022-12-18T09:22:20.511Z,-3.80
2022-12-18T09:24:47.311Z,-3.65
2022-12-18T09:27:13.741Z,-3.57
2022-12-18T09:29:40.710Z,-3.54
2022-12-18T09:32:07.237Z,-3.40
2022-12-18T09:34:33.719Z,-3.46
2022-12-18T09:37:00.173Z,-3.59
2022-12-18T09:39:26.752Z,-3.37
2022-12-18T09:41:54.262Z,-3.23
2022-12-18T09:44:20.720Z,-3.28
2022-12-18T09:46:47.194Z,-3.51
2022-12-18T09:49:13.993Z,-3.45
2022-12-18T09:51:40.356Z,-3.47
2022-12-18T09:54:07.200Z,-3.81
2022-12-18T09:56:33.591Z,-3.78
2022-12-18T09:59:00.047Z,-4.09
2022-12-18T10:01:31.975Z,-3.77
2022-12-18T10:04:04.411Z,-3.44
2022-12-18T10:06:31.340Z,-3.45
2022-12-18T10:08:57.700Z,-3.44
2022-12-18T10:11:24.167Z,-3.30
2022-12-18T10:13:50.583Z,-3.50
2022-12-18T10:16:17.124Z,-3.20
2022-12-18T10:18:45.557Z,-3.29
2022-12-18T10:21:11.904Z,-3.17
2022-12-18T10:23:39.739Z,-3.29
2022-12-18T10:26:07.921Z,-3.32
2022-12-18T10:28:35.625Z,-3.35
2022-12-18T10:31:03.148Z,-3.24
2022-12-18T10:33:30.448Z,-3.25
2022-12-18T10:35:58.190Z,-3.19
2022-12-18T10:38:24.607Z,-3.18
2022-12-18T10:40:51.114Z,-3.25
2022-12-18T10:43:17.486Z,-3.52
2022-12-18T10:45:43.897Z,-3.68
2022-12-18T10:48:10.434Z,-3.36
2022-12-18T10:51:09.065Z,-3.29
2022-12-18T10:53:23.270Z,-3.28
2022-12-18T10:55:50.102Z,-3.29
2022-12-18T10:58:17.693Z,-3.12
2022-12-18T11:00:46.376Z,-3.05
2022-12-18T11:03:16.199Z,-3.08
2022-12-18T11:05:42.755Z,-3.23
2022-12-18T11:08:09.196Z,-3.22
2022-12-18T11:10:35.655Z,-3.15
2022-12-18T11:13:02.102Z,-3.20
2022-12-18T11:15:30.157Z,-3.14
2022-12-18T11:17:56.553Z,-3.01
2022-12-18T11:20:23.041Z,-2.55
2022-12-18T11:22:49.501Z,-2.62
2022-12-18T11:25:32.607Z,-2.66
2022-12-18T11:28:00.434Z,-2.66
2022-12-18T11:30:26.883Z,-2.65
2022-12-18T11:32:54.276Z,-2.79
2022-12-18T11:35:21.230Z,-2.78
2022-12-18T11:37:47.773Z,-2.78
2022-12-18T11:40:14.501Z,-2.90
2022-12-18T11:42:40.865Z,-2.92
2022-12-18T11:45:07.467Z,-2.92
2022-12-18T11:47:34.517Z,-2.90
2022-12-18T11:50:00.965Z,-2.88
2022-12-18T11:52:27.336Z,-2.91
2022-12-18T11:54:53.812Z,-2.90
2022-12-18T11:57:20.238Z,-2.86
2022-12-18T11:59:46.699Z,-2.94
2022-12-18T12:02:13.375Z,-3.50
2022-12-18T12:04:40.235Z,-3.40
2022-12-18T12:07:07.487Z,-3.33
2022-12-18T12:09:34.035Z,-3.19
2022-12-18T12:12:00.469Z,-3.24
2022-12-18T12:14:26.924Z,-3.23
2022-12-18T12:16:53.346Z,-3.56
2022-12-18T12:19:19.842Z,-3.73
2022-12-18T12:21:46.276Z,-3.42
2022-12-18T12:24:12.888Z,-3.26
2022-12-18T12:26:39.322Z,-3.08
2022-12-18T12:29:05.828Z,-3.43
2022-12-18T12:31:34.984Z,-3.30
2022-12-18T12:34:01.539Z,-3.32
2022-12-18T12:36:28.258Z,-3.58
2022-12-18T12:38:54.694Z,-3.46
2022-12-18T12:41:21.080Z,-3.23
2022-12-18T12:43:50.322Z,-3.38
2022-12-18T12:46:17.859Z,-3.40
2022-12-18T12:48:45.239Z,-3.21
2022-12-18T12:51:12.288Z,-3.41
2022-12-18T12:53:38.760Z,-3.28
2022-12-18T12:56:06.463Z,-3.05
2022-12-18T12:58:32.969Z,-3.02
2022-12-18T13:00:59.698Z,-3.21
2022-12-18T13:03:26.144Z,-3.15
2022-12-18T13:05:52.799Z,-3.26
2022-12-18T13:08:19.198Z,-3.13
2022-12-18T13:10:48.732Z,-3.19
2022-12-18T13:13:18.648Z,-3.08
2022-12-18T13:15:50.289Z,-3.28
2022-12-18T13:18:17.081Z,-3.13
2022-12-18T13:20:46.584Z,-3.25
2022-12-18T13:23:17.406Z,-3.25
2022-12-18T13:25:44.637Z,-3.37
2022-12-18T13:28:11.095Z,-3.51
2022-12-18T13:30:38.546Z,-3.70
2022-12-18T13:33:05.430Z,-3.56
2022-12-18T13:35:31.893Z,-3.48
2022-12-18T13:37:58.542Z,-3.67
2022-12-18T13:40:25.308Z,-3.58
2022-12-18T13:42:51.659Z,-3.55
2022-12-18T13:45:18.110Z,-3.12
2022-12-18T13:47:45.270Z,-3.39
2022-12-18T13:50:12.185Z,-3.38
2022-12-18T13:52:38.967Z,-3.15
2022-12-18T13:55:05.572Z,-3.30
2022-12-18T13:57:32.668Z,-3.56
2022-12-18T13:59:59.308Z,-3.50
2022-12-18T14:02:25.876Z,-3.30
2022-12-18T14:04:52.663Z,-3.41
2022-12-18T14:07:19.593Z,-3.40
2022-12-18T14:09:47.339Z,-3.42
2022-12-18T14:12:14.841Z,-3.37
2022-12-18T14:14:42.305Z,-3.48
2022-12-18T14:17:08.778Z,-3.33
2022-12-18T14:19:35.780Z,-3.54
2022-12-18T14:22:02.209Z,-3.40
2022-12-18T14:24:28.637Z,-3.41
2022-12-18T14:26:55.175Z,-3.55
2022-12-18T14:29:21.778Z,-3.61
2022-12-18T14:31:49.826Z,-3.53
2022-12-18T14:34:17.855Z,-3.88
2022-12-18T14:36:44.280Z,-3.89
2022-12-18T14:39:10.820Z,-3.85
2022-12-18T14:41:39.293Z,-3.83
2022-12-18T14:44:05.749Z,-3.69
2022-12-18T14:46:32.698Z,-3.76
2022-12-18T14:48:59.079Z,-3.56
2022-12-18T14:51:25.512Z,-3.61
2022-12-18T14:53:54.894Z,-3.72
2022-12-18T14:56:21.805Z,-3.88
2022-12-18T14:58:49.068Z,-3.78
2022-12-18T15:01:15.944Z,-3.67
2022-12-18T15:03:43.201Z,-3.75
2022-12-18T15:06:10.566Z,-3.62
2022-12-18T15:08:37.829Z,-3.44
2022-12-18T15:11:10.332Z,-3.72
2022-12-18T15:13:40.846Z,-3.68
2022-12-18T15:16:07.741Z,-3.64
2022-12-18T15:18:34.534Z,-3.68
2022-12-18T15:21:01.376Z,-3.13
2022-12-18T15:23:28.420Z,-2.32
2022-12-18T15:25:55.379Z,-1.90
2022-12-18T15:28:22.186Z,-1.58
2022-12-18T15:30:49.241Z,-1.71
2022-12-18T15:33:16.439Z,-2.06
2022-12-18T15:35:46.948Z,-2.47
2022-12-18T15:38:14.204Z,-2.61
2022-12-18T15:40:41.214Z,-2.87
2022-12-18T15:43:08.264Z,-3.10
2022-12-18T15:45:35.460Z,-2.99
2022-12-18T15:48:02.290Z,-3.06
2022-12-18T15:50:29.241Z,-3.23
2022-12-18T15:52:57.286Z,-3.41
2022-12-18T15:55:24.534Z,-3.39
2022-12-18T15:57:52.145Z,-3.39
2022-12-18T16:00:19.889Z,-3.37
2022-12-18T16:02:47.082Z,-3.52
2022-12-18T16:05:14.649Z,-3.63
2022-12-18T16:07:42.115Z,-3.51
2022-12-18T16:10:09.701Z,-3.68
2022-12-18T16:12:37.333Z,-3.71
2022-12-18T16:15:04.299Z,-3.71
2022-12-18T16:17:32.474Z,-3.74
2022-12-18T16:19:59.760Z,-3.62
2022-12-18T16:22:27.027Z,-3.63
2022-12-18T16:24:54.624Z,-3.80
2022-12-18T16:27:21.188Z,-3.78
2022-12-18T16:29:48.273Z,-3.77
2022-12-18T16:32:15.219Z,-3.64
2022-12-18T16:34:44.453Z,-3.62
2022-12-18T16:37:15.884Z,-3.71
2022-12-18T16:39:42.856Z,-3.86
2022-12-18T16:42:11.652Z,-3.75
2022-12-18T16:44:38.368Z,-3.85
2022-12-18T16:47:04.947Z,-3.76
2022-12-18T16:49:36.679Z,-3.61
2022-12-18T16:52:04.196Z,-3.48
2022-12-18T16:54:30.946Z,-3.34
2022-12-18T16:56:57.393Z,-3.27
2022-12-18T16:59:23.937Z,-3.34
2022-12-18T17:01:51.433Z,-3.46
2022-12-18T17:04:19.583Z,-3.47
2022-12-18T17:06:46.821Z,-3.33
2022-12-18T17:09:13.892Z,-3.19
2022-12-18T17:11:40.905Z,-3.12
2022-12-18T17:14:08.201Z,-3.61
2022-12-18T17:16:35.162Z,-3.53
2022-12-18T17:19:02.881Z,-3.54
2022-12-18T17:21:33.269Z,-3.42
2022-12-18T17:24:00.370Z,-3.47
2022-12-18T17:26:28.658Z,-3.67
2022-12-18T17:28:58.851Z,-3.52
2022-12-18T17:31:25.854Z,-3.43
2022-12-18T17:33:52.532Z,-3.24
2022-12-18T17:36:19.535Z,-3.28
2022-12-18T17:38:48.027Z,-3.28
2022-12-18T17:41:15.119Z,-3.48
2022-12-18T17:43:42.599Z,-3.42
2022-12-18T17:46:10.092Z,-3.33
2022-12-18T17:48:37.032Z,-3.21
2022-12-18T17:51:06.043Z,-3.46
2022-12-18T17:53:32.702Z,-3.52
2022-12-18T17:56:05.313Z,-3.62
2022-12-18T17:58:31.801Z,-3.66
2022-12-18T18:00:58.837Z,-3.41
2022-12-18T18:03:26.848Z,-3.51
2022-12-18T18:05:53.871Z,-3.37
2022-12-18T18:08:20.791Z,-3.48
2022-12-18T18:10:48.278Z,-3.28
2022-12-18T18:13:16.075Z,-3.33
2022-12-18T18:15:43.872Z,-3.27
2022-12-18T18:18:11.315Z,-3.34
2022-12-18T18:20:38.341Z,-3.43
2022-12-18T18:23:05.923Z,-3.48
2022-12-18T18:25:33.012Z,-3.71
2022-12-18T18:28:05.469Z,-3.60
2022-12-18T18:30:33.473Z,-3.63
2022-12-18T18:33:01.260Z,-3.40
2022-12-18T18:35:52.929Z,-3.24
2022-12-18T18:38:15.867Z,-3.21
2022-12-18T18:40:43.406Z,-3.32
2022-12-18T18:43:10.206Z,-3.29
2022-12-18T18:45:38.409Z,-3.56
2022-12-18T18:48:07.509Z,-3.76
2022-12-18T18:50:35.009Z,-3.71
2022-12-18T18:53:01.912Z,-3.51
2022-12-18T18:55:28.848Z,-3.09
2022-12-18T18:57:56.433Z,-2.45
2022-12-18T19:00:23.589Z,-1.74
2022-12-18T19:02:50.606Z,-1.06
2022-12-18T19:05:18.511Z,-0.45
2022-12-18T19:07:45.128Z,-0.68
2022-12-18T19:10:11.572Z,-0.83
2022-12-18T19:12:38.348Z,-1.05
2022-12-18T19:15:07.535Z,-1.45
2022-12-18T19:17:34.607Z,-1.39
2022-12-18T19:20:02.093Z,-1.63
2022-12-18T19:22:29.088Z,-2.23
2022-12-18T19:24:55.972Z,-2.46
2022-12-18T19:27:23.402Z,-2.37
2022-12-18T19:29:51.177Z,-2.43
2022-12-18T19:32:19.647Z,-2.62
2022-12-18T19:34:46.456Z,-2.57
2022-12-18T19:37:15.152Z,-2.58
2022-12-18T19:39:43.325Z,-2.77
2022-12-18T19:42:10.045Z,-2.46
2022-12-18T19:44:36.983Z,-2.50
2022-12-18T19:47:04.823Z,-2.48
2022-12-18T19:49:32.685Z,-2.68
2022-12-18T19:52:00.740Z,-2.55
2022-12-18T19:54:28.726Z,-2.62
2022-12-18T19:56:55.535Z,-2.79
2022-12-18T19:59:23.494Z,-2.86
2022-12-18T20:01:50.572Z,-2.79
2022-12-18T20:04:17.394Z,-2.69
2022-12-18T20:06:45.069Z,-2.54
2022-12-18T20:09:11.541Z,-2.70
2022-12-18T20:11:41.666Z,-2.85
2022-12-18T20:14:09.193Z,-2.60
2022-12-18T20:16:38.514Z,-2.54
2022-12-18T20:19:06.176Z,-2.56
2022-12-18T20:21:33.364Z,-2.63
2022-12-18T20:24:00.288Z,-2.71
2022-12-18T20:26:28.170Z,-2.56
2022-12-18T20:28:55.887Z,-2.59
2022-12-18T20:31:23.412Z,-2.56
2022-12-18T20:33:52.034Z,-2.75
2022-12-18T20:36:22.596Z,-2.58
2022-12-18T20:38:51.596Z,-2.63
2022-12-18T20:41:21.722Z,-2.88
2022-12-18T20:43:48.824Z,-2.75
2022-12-18T20:46:15.685Z,-2.75
2022-12-18T20:48:42.367Z,-2.77
2022-12-18T20:51:11.132Z,-2.74
2022-12-18T20:53:38.704Z,-2.64
2022-12-18T20:56:09.239Z,-2.63
2022-12-18T20:58:35.957Z,-2.85
2022-12-18T21:01:04.393Z,-2.88
2022-12-18T21:03:31.411Z,-2.68
2022-12-18T21:05:58.298Z,-2.75
2022-12-18T21:08:25.038Z,-3.12
2022-12-18T21:10:53.072Z,-3.01
2022-12-18T21:13:22.139Z,-2.88
2022-12-18T21:15:48.521Z,-3.38
2022-12-18T21:18:16.976Z,-3.30
2022-12-18T21:20:43.610Z,-3.22
2022-12-18T21:23:15.571Z,-3.31
2022-12-18T21:25:43.237Z,-3.40
2022-12-18T21:28:09.994Z,-3.37
2022-12-18T21:30:37.494Z,-3.13
2022-12-18T21:33:04.021Z,-2.99
2022-12-18T21:35:32.031Z,-2.90
2022-12-18T21:37:58.712Z,-2.77
2022-12-18T21:40:25.320Z,-2.78
2022-12-18T21:42:51.736Z,-2.88
2022-12-18T21:45:18.179Z,-3.06
2022-12-18T21:47:44.610Z,-3.07
2022-12-18T21:50:11.460Z,-2.84
2022-12-18T21:52:37.942Z,-2.77
2022-12-18T21:55:09.496Z,-3.08
2022-12-18T21:57:36.623Z,-3.18
2022-12-18T22:00:03.050Z,-2.78
2022-12-18T22:02:30.825Z,-2.83
2022-12-18T22:04:57.335Z,-2.94
2022-12-18T22:07:24.132Z,-2.92
2022-12-18T22:09:50.550Z,-2.87
2022-12-18T22:12:16.963Z,-2.83
2022-12-18T22:14:44.132Z,-2.90
2022-12-18T22:17:10.480Z,-3.22
2022-12-18T22:19:42.890Z,-2.90
2022-12-18T22:22:09.916Z,-3.19
2022-12-18T22:24:36.315Z,-3.22
2022-12-18T22:27:02.734Z,-3.07
2022-12-18T22:29:29.424Z,-3.04
2022-12-18T22:31:57.371Z,-3.42
2022-12-18T22:34:24.094Z,-3.11
2022-12-18T22:36:50.722Z,-3.21
2022-12-18T22:39:17.220Z,-3.34
2022-12-18T22:41:44.246Z,-3.18
2022-12-18T22:44:11.768Z,-3.43
2022-12-18T22:46:41.555Z,-3.33
2022-12-18T22:49:08.308Z,-3.16
2022-12-18T22:51:34.913Z,-3.09
2022-12-18T22:54:01.467Z,-3.24
2022-12-18T22:56:28.683Z,-3.40
2022-12-18T22:58:56.313Z,-3.51
2022-12-18T23:01:25.120Z,-3.32
2022-12-18T23:03:51.648Z,-3.30
2022-12-18T23:06:18.161Z,-3.39
2022-12-18T23:08:44.716Z,-3.34
2022-12-18T23:11:11.458Z,-3.39
2022-12-18T23:13:37.913Z,-3.48
2022-12-18T23:16:05.400Z,-3.35
2022-12-18T23:18:32.014Z,-3.34
2022-12-18T23:20:58.506Z,-3.46
2022-12-18T23:23:26.064Z,-3.51
2022-12-18T23:25:52.661Z,-3.42
2022-12-18T23:28:19.312Z,-3.35
2022-12-18T23:30:45.667Z,-3.34
2022-12-18T23:33:12.094Z,-3.54
2022-12-18T23:35:39.945Z,-3.56
2022-12-18T23:38:06.606Z,-3.56
2022-12-18T23:40:33.102Z,-3.47
2022-12-18T23:43:01.860Z,-3.59
2022-12-18T23:45:28.241Z,-3.61
2022-12-18T23:47:54.591Z,-3.68
2022-12-18T23:50:25.451Z,-3.65
2022-12-18T23:52:55.645Z,-3.83
2022-12-18T23:55:24.438Z,-3.65
2022-12-18T23:57:51.049Z,-3.82
